sensor_id;sensor_type;location;lat;lon;timestamp;temperature;humidity
32296;DHT22;18781;51.550;5.418;2024-02-04T00:00:27;13.70;85.40
32296;DHT22;18781;51.550;5.418;2024-02-04T00:02:52;13.70;85.40
32296;DHT22;18781;51.550;5.418;2024-02-04T00:05:18;13.70;85.40
32296;DHT22;18781;51.550;5.418;2024-02-04T00:07:44;13.70;85.40
32296;DHT22;18781;51.550;5.418;2024-02-04T00:10:10;13.70;85.50
32296;DHT22;18781;51.550;5.418;2024-02-04T00:12:36;13.70;85.50
32296;DHT22;18781;51.550;5.418;2024-02-04T00:15:02;13.70;85.50
32296;DHT22;18781;51.550;5.418;2024-02-04T00:17:30;13.70;85.50
32296;DHT22;18781;51.550;5.418;2024-02-04T00:19:58;13.70;85.50
32296;DHT22;18781;51.550;5.418;2024-02-04T00:22:24;13.70;85.50
32296;DHT22;18781;51.550;5.418;2024-02-04T00:24:50;13.70;85.50
32296;DHT22;18781;51.550;5.418;2024-02-04T00:27:16;13.70;85.60
32296;DHT22;18781;51.550;5.418;2024-02-04T00:29:41;13.70;85.60
32296;DHT22;18781;51.550;5.418;2024-02-04T00:32:07;13.70;85.70
32296;DHT22;18781;51.550;5.418;2024-02-04T00:34:34;13.70;85.60
32296;DHT22;18781;51.550;5.418;2024-02-04T00:36:59;13.70;86.20
32296;DHT22;18781;51.550;5.418;2024-02-04T00:39:25;13.70;85.70
32296;DHT22;18781;51.550;5.418;2024-02-04T00:41:51;13.70;85.70
32296;DHT22;18781;51.550;5.418;2024-02-04T00:44:17;13.70;85.70
32296;DHT22;18781;51.550;5.418;2024-02-04T00:46:43;13.70;85.70
32296;DHT22;18781;51.550;5.418;2024-02-04T00:49:09;13.70;85.70
32296;DHT22;18781;51.550;5.418;2024-02-04T00:51:35;13.70;85.70
32296;DHT22;18781;51.550;5.418;2024-02-04T00:54:00;13.80;85.70
32296;DHT22;18781;51.550;5.418;2024-02-04T00:56:26;13.80;85.70
32296;DHT22;18781;51.550;5.418;2024-02-04T00:58:52;13.80;85.70
32296;DHT22;18781;51.550;5.418;2024-02-04T01:01:17;13.80;85.70
32296;DHT22;18781;51.550;5.418;2024-02-04T01:03:44;13.80;85.70
32296;DHT22;18781;51.550;5.418;2024-02-04T01:06:10;13.80;85.70
32296;DHT22;18781;51.550;5.418;2024-02-04T01:08:36;13.80;85.70
32296;DHT22;18781;51.550;5.418;2024-02-04T01:11:06;13.80;85.70
32296;DHT22;18781;51.550;5.418;2024-02-04T01:13:31;13.80;85.70
32296;DHT22;18781;51.550;5.418;2024-02-04T01:15:58;13.80;85.80
32296;DHT22;18781;51.550;5.418;2024-02-04T01:18:23;13.80;85.80
32296;DHT22;18781;51.550;5.418;2024-02-04T01:20:49;13.80;85.70
32296;DHT22;18781;51.550;5.418;2024-02-04T01:23:15;13.80;85.80
32296;DHT22;18781;51.550;5.418;2024-02-04T01:25:43;13.80;85.60
32296;DHT22;18781;51.550;5.418;2024-02-04T01:28:08;13.80;85.70
32296;DHT22;18781;51.550;5.418;2024-02-04T01:30:35;13.80;85.60
32296;DHT22;18781;51.550;5.418;2024-02-04T01:33:00;13.80;85.60
32296;DHT22;18781;51.550;5.418;2024-02-04T01:35:26;13.80;85.60
32296;DHT22;18781;51.550;5.418;2024-02-04T01:37:52;13.80;85.70
32296;DHT22;18781;51.550;5.418;2024-02-04T01:40:17;13.80;85.60
32296;DHT22;18781;51.550;5.418;2024-02-04T01:42:43;13.80;85.50
32296;DHT22;18781;51.550;5.418;2024-02-04T01:45:09;13.80;85.50
32296;DHT22;18781;51.550;5.418;2024-02-04T01:47:35;13.80;85.60
32296;DHT22;18781;51.550;5.418;2024-02-04T01:50:01;13.80;85.50
32296;DHT22;18781;51.550;5.418;2024-02-04T01:52:30;13.80;85.50
32296;DHT22;18781;51.550;5.418;2024-02-04T01:54:56;13.80;85.50
32296;DHT22;18781;51.550;5.418;2024-02-04T01:57:23;13.90;85.50
32296;DHT22;18781;51.550;5.418;2024-02-04T01:59:48;13.80;85.50
32296;DHT22;18781;51.550;5.418;2024-02-04T02:02:17;13.80;85.40
32296;DHT22;18781;51.550;5.418;2024-02-04T02:04:43;13.90;85.50
32296;DHT22;18781;51.550;5.418;2024-02-04T02:07:09;13.90;85.50
32296;DHT22;18781;51.550;5.418;2024-02-04T02:09:35;13.90;85.50
32296;DHT22;18781;51.550;5.418;2024-02-04T02:12:02;13.80;85.40
32296;DHT22;18781;51.550;5.418;2024-02-04T02:14:32;13.90;85.40
32296;DHT22;18781;51.550;5.418;2024-02-04T02:17:03;13.90;85.40
32296;DHT22;18781;51.550;5.418;2024-02-04T02:24:47;13.90;85.30
32296;DHT22;18781;51.550;5.418;2024-02-04T02:27:13;13.80;85.20
32296;DHT22;18781;51.550;5.418;2024-02-04T02:29:38;13.80;85.30
32296;DHT22;18781;51.550;5.418;2024-02-04T02:32:04;13.80;85.20
32296;DHT22;18781;51.550;5.418;2024-02-04T02:34:30;13.80;85.30
32296;DHT22;18781;51.550;5.418;2024-02-04T02:37:06;13.80;85.20
32296;DHT22;18781;51.550;5.418;2024-02-04T02:39:42;13.80;85.20
32296;DHT22;18781;51.550;5.418;2024-02-04T02:42:11;13.80;85.10
32296;DHT22;18781;51.550;5.418;2024-02-04T02:44:38;13.80;85.10
32296;DHT22;18781;51.550;5.418;2024-02-04T02:47:05;13.80;85.10
32296;DHT22;18781;51.550;5.418;2024-02-04T02:49:32;13.80;85.10
32296;DHT22;18781;51.550;5.418;2024-02-04T02:51:58;13.80;85.00
32296;DHT22;18781;51.550;5.418;2024-02-04T02:54:23;13.80;85.00
32296;DHT22;18781;51.550;5.418;2024-02-04T02:56:49;13.80;84.90
32296;DHT22;18781;51.550;5.418;2024-02-04T02:59:15;13.80;84.80
32296;DHT22;18781;51.550;5.418;2024-02-04T03:01:41;13.80;84.80
32296;DHT22;18781;51.550;5.418;2024-02-04T03:04:07;13.80;84.80
32296;DHT22;18781;51.550;5.418;2024-02-04T03:06:32;13.80;84.80
32296;DHT22;18781;51.550;5.418;2024-02-04T03:08:58;13.70;84.70
32296;DHT22;18781;51.550;5.418;2024-02-04T03:11:24;13.70;84.50
32296;DHT22;18781;51.550;5.418;2024-02-04T03:13:49;13.70;84.50
32296;DHT22;18781;51.550;5.418;2024-02-04T03:16:15;13.70;84.50
32296;DHT22;18781;51.550;5.418;2024-02-04T03:18:41;13.70;84.30
32296;DHT22;18781;51.550;5.418;2024-02-04T03:21:14;13.70;84.40
32296;DHT22;18781;51.550;5.418;2024-02-04T03:23:44;13.70;84.40
32296;DHT22;18781;51.550;5.418;2024-02-04T03:26:16;13.70;84.40
32296;DHT22;18781;51.550;5.418;2024-02-04T03:28:44;13.60;84.40
32296;DHT22;18781;51.550;5.418;2024-02-04T03:31:10;13.60;84.50
32296;DHT22;18781;51.550;5.418;2024-02-04T03:33:35;13.60;84.50
32296;DHT22;18781;51.550;5.418;2024-02-04T03:36:01;13.60;84.40
32296;DHT22;18781;51.550;5.418;2024-02-04T03:38:26;13.60;84.50
32296;DHT22;18781;51.550;5.418;2024-02-04T03:40:52;13.60;84.50
32296;DHT22;18781;51.550;5.418;2024-02-04T03:43:18;13.60;84.50
32296;DHT22;18781;51.550;5.418;2024-02-04T03:45:43;13.60;84.60
32296;DHT22;18781;51.550;5.418;2024-02-04T03:48:11;13.60;84.50
32296;DHT22;18781;51.550;5.418;2024-02-04T03:50:37;13.60;84.60
32296;DHT22;18781;51.550;5.418;2024-02-04T03:53:03;13.60;84.60
32296;DHT22;18781;51.550;5.418;2024-02-04T03:55:28;13.50;84.50
32296;DHT22;18781;51.550;5.418;2024-02-04T03:57:55;13.60;84.60
32296;DHT22;18781;51.550;5.418;2024-02-04T04:00:22;13.60;84.60
32296;DHT22;18781;51.550;5.418;2024-02-04T04:02:48;13.60;84.60
32296;DHT22;18781;51.550;5.418;2024-02-04T04:05:13;13.60;84.60
32296;DHT22;18781;51.550;5.418;2024-02-04T04:07:40;13.50;84.60
32296;DHT22;18781;51.550;5.418;2024-02-04T04:10:06;13.60;85.20
32296;DHT22;18781;51.550;5.418;2024-02-04T04:12:31;13.50;84.70
32296;DHT22;18781;51.550;5.418;2024-02-04T04:14:57;13.60;84.70
32296;DHT22;18781;51.550;5.418;2024-02-04T04:17:23;13.60;84.70
32296;DHT22;18781;51.550;5.418;2024-02-04T04:19:48;13.60;84.60
32296;DHT22;18781;51.550;5.418;2024-02-04T04:22:14;13.60;84.60
32296;DHT22;18781;51.550;5.418;2024-02-04T04:24:39;13.60;84.60
32296;DHT22;18781;51.550;5.418;2024-02-04T04:27:05;13.60;84.60
32296;DHT22;18781;51.550;5.418;2024-02-04T04:29:31;13.60;84.70
32296;DHT22;18781;51.550;5.418;2024-02-04T04:31:56;13.60;85.20
32296;DHT22;18781;51.550;5.418;2024-02-04T04:34:22;13.60;84.70
32296;DHT22;18781;51.550;5.418;2024-02-04T04:36:48;13.60;84.60
32296;DHT22;18781;51.550;5.418;2024-02-04T04:39:13;13.60;84.70
32296;DHT22;18781;51.550;5.418;2024-02-04T04:41:41;13.60;84.70
32296;DHT22;18781;51.550;5.418;2024-02-04T04:44:07;13.60;84.70
32296;DHT22;18781;51.550;5.418;2024-02-04T04:46:33;13.60;84.80
32296;DHT22;18781;51.550;5.418;2024-02-04T04:48:58;13.60;84.80
32296;DHT22;18781;51.550;5.418;2024-02-04T04:51:25;13.60;84.80
32296;DHT22;18781;51.550;5.418;2024-02-04T04:53:51;13.60;84.80
32296;DHT22;18781;51.550;5.418;2024-02-04T04:56:16;13.60;84.80
32296;DHT22;18781;51.550;5.418;2024-02-04T04:58:42;13.60;84.70
32296;DHT22;18781;51.550;5.418;2024-02-04T05:01:08;13.60;84.80
32296;DHT22;18781;51.550;5.418;2024-02-04T05:03:33;13.60;84.80
32296;DHT22;18781;51.550;5.418;2024-02-04T05:05:59;13.60;84.70
32296;DHT22;18781;51.550;5.418;2024-02-04T05:08:26;13.60;84.80
32296;DHT22;18781;51.550;5.418;2024-02-04T05:10:52;13.60;84.80
32296;DHT22;18781;51.550;5.418;2024-02-04T05:13:17;13.60;84.70
32296;DHT22;18781;51.550;5.418;2024-02-04T05:15:43;13.70;84.80
32296;DHT22;18781;51.550;5.418;2024-02-04T05:18:08;13.70;84.80
32296;DHT22;18781;51.550;5.418;2024-02-04T05:20:34;13.70;84.90
32296;DHT22;18781;51.550;5.418;2024-02-04T05:23:00;13.70;84.90
32296;DHT22;18781;51.550;5.418;2024-02-04T05:25:26;13.70;84.90
32296;DHT22;18781;51.550;5.418;2024-02-04T05:27:51;13.70;84.90
32296;DHT22;18781;51.550;5.418;2024-02-04T05:30:17;13.70;84.90
32296;DHT22;18781;51.550;5.418;2024-02-04T05:32:43;13.70;84.80
32296;DHT22;18781;51.550;5.418;2024-02-04T05:35:10;13.70;85.00
32296;DHT22;18781;51.550;5.418;2024-02-04T05:37:36;13.70;84.90
32296;DHT22;18781;51.550;5.418;2024-02-04T05:40:03;13.70;84.90
32296;DHT22;18781;51.550;5.418;2024-02-04T05:42:29;13.70;84.80
32296;DHT22;18781;51.550;5.418;2024-02-04T05:44:57;13.70;84.80
32296;DHT22;18781;51.550;5.418;2024-02-04T05:47:23;13.70;84.70
32296;DHT22;18781;51.550;5.418;2024-02-04T05:49:48;13.70;84.80
32296;DHT22;18781;51.550;5.418;2024-02-04T05:52:14;13.70;84.90
32296;DHT22;18781;51.550;5.418;2024-02-04T05:54:40;13.70;84.80
32296;DHT22;18781;51.550;5.418;2024-02-04T05:57:06;13.70;84.70
32296;DHT22;18781;51.550;5.418;2024-02-04T05:59:32;13.70;84.80
32296;DHT22;18781;51.550;5.418;2024-02-04T06:01:58;13.70;84.70
32296;DHT22;18781;51.550;5.418;2024-02-04T06:04:23;13.70;84.70
32296;DHT22;18781;51.550;5.418;2024-02-04T06:06:49;13.70;84.70
32296;DHT22;18781;51.550;5.418;2024-02-04T06:09:15;13.70;84.70
32296;DHT22;18781;51.550;5.418;2024-02-04T06:11:40;13.70;84.70
32296;DHT22;18781;51.550;5.418;2024-02-04T06:14:09;13.70;84.60
32296;DHT22;18781;51.550;5.418;2024-02-04T06:16:35;13.70;84.80
32296;DHT22;18781;51.550;5.418;2024-02-04T06:19:00;13.70;84.70
32296;DHT22;18781;51.550;5.418;2024-02-04T06:21:26;13.70;84.70
32296;DHT22;18781;51.550;5.418;2024-02-04T06:23:55;13.70;84.80
32296;DHT22;18781;51.550;5.418;2024-02-04T06:26:20;13.70;84.80
32296;DHT22;18781;51.550;5.418;2024-02-04T06:28:46;13.70;84.80
32296;DHT22;18781;51.550;5.418;2024-02-04T06:31:14;13.70;84.80
32296;DHT22;18781;51.550;5.418;2024-02-04T06:33:40;13.70;84.80
32296;DHT22;18781;51.550;5.418;2024-02-04T06:36:11;13.70;84.90
32296;DHT22;18781;51.550;5.418;2024-02-04T06:38:37;13.70;85.00
32296;DHT22;18781;51.550;5.418;2024-02-04T06:41:03;13.70;85.00
32296;DHT22;18781;51.550;5.418;2024-02-04T06:43:29;13.70;85.00
32296;DHT22;18781;51.550;5.418;2024-02-04T06:45:54;13.70;85.00
32296;DHT22;18781;51.550;5.418;2024-02-04T06:48:20;13.70;84.90
32296;DHT22;18781;51.550;5.418;2024-02-04T06:50:46;13.70;84.90
32296;DHT22;18781;51.550;5.418;2024-02-04T06:53:16;13.70;85.00
32296;DHT22;18781;51.550;5.418;2024-02-04T06:55:41;13.70;85.00
32296;DHT22;18781;51.550;5.418;2024-02-04T06:58:07;13.70;85.00
32296;DHT22;18781;51.550;5.418;2024-02-04T07:00:32;13.70;85.60
32296;DHT22;18781;51.550;5.418;2024-02-04T07:02:58;13.70;85.00
32296;DHT22;18781;51.550;5.418;2024-02-04T07:05:23;13.60;85.00
32296;DHT22;18781;51.550;5.418;2024-02-04T07:07:50;13.60;85.20
32296;DHT22;18781;51.550;5.418;2024-02-04T07:10:16;13.60;85.10
32296;DHT22;18781;51.550;5.418;2024-02-04T07:12:42;13.60;85.10
32296;DHT22;18781;51.550;5.418;2024-02-04T07:15:08;13.60;85.00
32296;DHT22;18781;51.550;5.418;2024-02-04T07:17:34;13.70;85.10
32296;DHT22;18781;51.550;5.418;2024-02-04T07:20:04;13.70;85.20
32296;DHT22;18781;51.550;5.418;2024-02-04T07:22:30;13.70;85.10
32296;DHT22;18781;51.550;5.418;2024-02-04T07:24:56;13.60;85.10
32296;DHT22;18781;51.550;5.418;2024-02-04T07:27:21;13.70;85.70
32296;DHT22;18781;51.550;5.418;2024-02-04T07:29:47;13.70;85.20
32296;DHT22;18781;51.550;5.418;2024-02-04T07:32:14;13.60;85.20
32296;DHT22;18781;51.550;5.418;2024-02-04T07:34:40;13.70;85.10
32296;DHT22;18781;51.550;5.418;2024-02-04T07:37:06;13.70;85.20
32296;DHT22;18781;51.550;5.418;2024-02-04T07:39:31;13.70;85.20
32296;DHT22;18781;51.550;5.418;2024-02-04T07:41:57;13.60;85.20
32296;DHT22;18781;51.550;5.418;2024-02-04T07:44:29;13.70;85.20
32296;DHT22;18781;51.550;5.418;2024-02-04T07:46:55;13.60;85.20
32296;DHT22;18781;51.550;5.418;2024-02-04T07:49:20;13.70;85.10
32296;DHT22;18781;51.550;5.418;2024-02-04T07:51:46;13.60;85.10
32296;DHT22;18781;51.550;5.418;2024-02-04T07:54:11;13.70;85.00
32296;DHT22;18781;51.550;5.418;2024-02-04T07:56:37;13.70;85.00
32296;DHT22;18781;51.550;5.418;2024-02-04T07:59:03;13.70;85.00
32296;DHT22;18781;51.550;5.418;2024-02-04T08:01:29;13.70;85.10
32296;DHT22;18781;51.550;5.418;2024-02-04T08:03:55;13.70;85.00
32296;DHT22;18781;51.550;5.418;2024-02-04T08:06:21;13.70;85.00
32296;DHT22;18781;51.550;5.418;2024-02-04T08:08:46;13.70;85.00
32296;DHT22;18781;51.550;5.418;2024-02-04T08:11:19;13.70;85.00
32296;DHT22;18781;51.550;5.418;2024-02-04T08:13:45;13.70;84.90
32296;DHT22;18781;51.550;5.418;2024-02-04T08:16:11;13.70;85.00
32296;DHT22;18781;51.550;5.418;2024-02-04T08:18:37;13.70;85.00
32296;DHT22;18781;51.550;5.418;2024-02-04T08:21:03;13.70;85.00
32296;DHT22;18781;51.550;5.418;2024-02-04T08:23:29;13.70;85.00
32296;DHT22;18781;51.550;5.418;2024-02-04T08:25:54;13.70;85.10
32296;DHT22;18781;51.550;5.418;2024-02-04T08:28:22;13.70;85.10
32296;DHT22;18781;51.550;5.418;2024-02-04T08:30:49;13.70;85.10
32296;DHT22;18781;51.550;5.418;2024-02-04T08:33:14;13.60;85.10
32296;DHT22;18781;51.550;5.418;2024-02-04T08:35:40;13.70;85.20
32296;DHT22;18781;51.550;5.418;2024-02-04T08:38:05;13.70;85.20
32296;DHT22;18781;51.550;5.418;2024-02-04T08:40:31;13.70;85.20
32296;DHT22;18781;51.550;5.418;2024-02-04T08:42:57;13.70;85.20
32296;DHT22;18781;51.550;5.418;2024-02-04T08:45:22;13.70;85.20
32296;DHT22;18781;51.550;5.418;2024-02-04T08:47:48;13.70;85.20
32296;DHT22;18781;51.550;5.418;2024-02-04T08:50:13;13.70;85.20
32296;DHT22;18781;51.550;5.418;2024-02-04T08:52:39;13.70;85.20
32296;DHT22;18781;51.550;5.418;2024-02-04T08:55:05;13.70;85.20
32296;DHT22;18781;51.550;5.418;2024-02-04T08:57:31;13.70;85.20
32296;DHT22;18781;51.550;5.418;2024-02-04T08:59:56;13.70;85.10
32296;DHT22;18781;51.550;5.418;2024-02-04T09:02:22;13.70;85.20
32296;DHT22;18781;51.550;5.418;2024-02-04T09:04:48;13.70;85.10
32296;DHT22;18781;51.550;5.418;2024-02-04T09:07:13;13.70;85.10
32296;DHT22;18781;51.550;5.418;2024-02-04T09:09:39;13.80;85.20
32296;DHT22;18781;51.550;5.418;2024-02-04T09:12:05;13.70;85.10
32296;DHT22;18781;51.550;5.418;2024-02-04T09:14:31;13.80;85.20
32296;DHT22;18781;51.550;5.418;2024-02-04T09:16:56;13.80;85.10
32296;DHT22;18781;51.550;5.418;2024-02-04T09:19:22;13.80;85.10
32296;DHT22;18781;51.550;5.418;2024-02-04T09:21:49;13.80;85.10
32296;DHT22;18781;51.550;5.418;2024-02-04T09:24:15;13.80;85.10
32296;DHT22;18781;51.550;5.418;2024-02-04T09:26:40;13.80;85.20
32296;DHT22;18781;51.550;5.418;2024-02-04T09:29:06;13.90;85.20
32296;DHT22;18781;51.550;5.418;2024-02-04T09:31:32;13.90;85.20
32296;DHT22;18781;51.550;5.418;2024-02-04T09:33:57;13.90;85.20
32296;DHT22;18781;51.550;5.418;2024-02-04T09:36:23;13.90;85.20
32296;DHT22;18781;51.550;5.418;2024-02-04T09:38:49;13.90;85.10
32296;DHT22;18781;51.550;5.418;2024-02-04T09:41:14;14.00;85.00
32296;DHT22;18781;51.550;5.418;2024-02-04T09:43:41;14.00;85.00
32296;DHT22;18781;51.550;5.418;2024-02-04T09:46:06;14.00;84.90
32296;DHT22;18781;51.550;5.418;2024-02-04T09:48:33;14.00;85.00
32296;DHT22;18781;51.550;5.418;2024-02-04T09:50:59;14.00;85.10
32296;DHT22;18781;51.550;5.418;2024-02-04T09:53:35;14.00;85.10
32296;DHT22;18781;51.550;5.418;2024-02-04T09:56:04;14.00;85.30
32296;DHT22;18781;51.550;5.418;2024-02-04T09:58:34;14.00;85.30
32296;DHT22;18781;51.550;5.418;2024-02-04T10:01:00;14.00;85.20
32296;DHT22;18781;51.550;5.418;2024-02-04T10:03:26;14.00;85.20
32296;DHT22;18781;51.550;5.418;2024-02-04T10:05:53;14.00;85.10
32296;DHT22;18781;51.550;5.418;2024-02-04T10:08:19;14.00;85.20
32296;DHT22;18781;51.550;5.418;2024-02-04T10:10:45;14.00;85.20
32296;DHT22;18781;51.550;5.418;2024-02-04T10:13:11;14.00;85.20
32296;DHT22;18781;51.550;5.418;2024-02-04T10:15:37;14.00;85.20
32296;DHT22;18781;51.550;5.418;2024-02-04T10:18:07;14.00;85.30
32296;DHT22;18781;51.550;5.418;2024-02-04T10:20:33;14.00;85.30
32296;DHT22;18781;51.550;5.418;2024-02-04T10:22:58;14.00;85.20
32296;DHT22;18781;51.550;5.418;2024-02-04T10:25:24;14.00;85.10
32296;DHT22;18781;51.550;5.418;2024-02-04T10:27:50;14.10;85.20
32296;DHT22;18781;51.550;5.418;2024-02-04T10:30:19;14.10;85.20
32296;DHT22;18781;51.550;5.418;2024-02-04T10:32:45;14.10;85.30
32296;DHT22;18781;51.550;5.418;2024-02-04T10:35:11;14.10;85.30
32296;DHT22;18781;51.550;5.418;2024-02-04T10:37:37;14.10;85.30
32296;DHT22;18781;51.550;5.418;2024-02-04T10:40:03;14.10;85.30
32296;DHT22;18781;51.550;5.418;2024-02-04T10:42:29;14.10;85.30
32296;DHT22;18781;51.550;5.418;2024-02-04T10:44:58;14.10;85.40
32296;DHT22;18781;51.550;5.418;2024-02-04T10:47:32;14.10;85.40
32296;DHT22;18781;51.550;5.418;2024-02-04T10:49:58;14.10;85.40
32296;DHT22;18781;51.550;5.418;2024-02-04T10:52:32;14.10;85.40
32296;DHT22;18781;51.550;5.418;2024-02-04T10:55:00;14.10;85.40
32296;DHT22;18781;51.550;5.418;2024-02-04T10:57:27;14.10;85.40
32296;DHT22;18781;51.550;5.418;2024-02-04T10:59:55;14.10;85.40
32296;DHT22;18781;51.550;5.418;2024-02-04T11:02:22;14.10;85.40
32296;DHT22;18781;51.550;5.418;2024-02-04T11:04:49;14.10;85.50
32296;DHT22;18781;51.550;5.418;2024-02-04T11:07:17;14.10;85.40
32296;DHT22;18781;51.550;5.418;2024-02-04T11:09:46;14.10;85.40
32296;DHT22;18781;51.550;5.418;2024-02-04T11:12:16;14.10;85.40
32296;DHT22;18781;51.550;5.418;2024-02-04T11:14:44;14.10;85.30
32296;DHT22;18781;51.550;5.418;2024-02-04T11:20:57;14.10;85.20
32296;DHT22;18781;51.550;5.418;2024-02-04T11:25:56;14.10;85.40
32296;DHT22;18781;51.550;5.418;2024-02-04T11:28:23;14.10;85.30
32296;DHT22;18781;51.550;5.418;2024-02-04T11:30:51;14.10;85.40
32296;DHT22;18781;51.550;5.418;2024-02-04T11:33:21;14.10;85.40
32296;DHT22;18781;51.550;5.418;2024-02-04T11:35:57;14.10;85.50
32296;DHT22;18781;51.550;5.418;2024-02-04T11:38:38;14.10;85.50
32296;DHT22;18781;51.550;5.418;2024-02-04T11:41:04;14.10;85.50
32296;DHT22;18781;51.550;5.418;2024-02-04T11:43:32;14.10;85.50
32296;DHT22;18781;51.550;5.418;2024-02-04T11:45:58;14.10;85.40
32296;DHT22;18781;51.550;5.418;2024-02-04T11:48:33;14.10;85.50
32296;DHT22;18781;51.550;5.418;2024-02-04T11:50:59;14.10;85.60
32296;DHT22;18781;51.550;5.418;2024-02-04T11:53:26;14.10;85.50
32296;DHT22;18781;51.550;5.418;2024-02-04T11:55:57;14.10;85.60
32296;DHT22;18781;51.550;5.418;2024-02-04T11:58:24;14.10;85.60
32296;DHT22;18781;51.550;5.418;2024-02-04T12:00:52;14.10;85.50
32296;DHT22;18781;51.550;5.418;2024-02-04T12:03:28;14.20;85.60
32296;DHT22;18781;51.550;5.418;2024-02-04T12:05:55;14.10;85.60
32296;DHT22;18781;51.550;5.418;2024-02-04T12:08:21;14.20;85.50
32296;DHT22;18781;51.550;5.418;2024-02-04T12:10:47;14.20;85.50
32296;DHT22;18781;51.550;5.418;2024-02-04T12:13:13;14.20;85.50
32296;DHT22;18781;51.550;5.418;2024-02-04T12:15:40;14.20;85.50
32296;DHT22;18781;51.550;5.418;2024-02-04T12:18:09;14.20;85.80
32296;DHT22;18781;51.550;5.418;2024-02-04T12:20:36;14.20;85.50
32296;DHT22;18781;51.550;5.418;2024-02-04T12:23:06;14.20;85.30
32296;DHT22;18781;51.550;5.418;2024-02-04T12:25:32;14.20;85.40
32296;DHT22;18781;51.550;5.418;2024-02-04T12:27:59;14.20;85.40
32296;DHT22;18781;51.550;5.418;2024-02-04T12:30:26;14.20;85.10
32296;DHT22;18781;51.550;5.418;2024-02-04T12:33:02;14.30;85.10
32296;DHT22;18781;51.550;5.418;2024-02-04T12:35:29;14.30;85.10
32296;DHT22;18781;51.550;5.418;2024-02-04T12:37:57;14.30;85.10
32296;DHT22;18781;51.550;5.418;2024-02-04T12:40:24;14.30;85.10
32296;DHT22;18781;51.550;5.418;2024-02-04T12:43:02;14.30;85.00
32296;DHT22;18781;51.550;5.418;2024-02-04T12:45:29;14.30;84.90
32296;DHT22;18781;51.550;5.418;2024-02-04T12:47:56;14.30;84.80
32296;DHT22;18781;51.550;5.418;2024-02-04T12:50:23;14.30;84.80
32296;DHT22;18781;51.550;5.418;2024-02-04T12:53:09;14.30;84.80
32296;DHT22;18781;51.550;5.418;2024-02-04T12:55:37;14.30;84.80
32296;DHT22;18781;51.550;5.418;2024-02-04T12:58:07;14.30;84.80
32296;DHT22;18781;51.550;5.418;2024-02-04T13:00:35;14.30;84.50
32296;DHT22;18781;51.550;5.418;2024-02-04T13:03:02;14.30;84.40
32296;DHT22;18781;51.550;5.418;2024-02-04T13:05:27;14.30;84.50
32296;DHT22;18781;51.550;5.418;2024-02-04T13:07:57;14.40;84.50
32296;DHT22;18781;51.550;5.418;2024-02-04T13:10:26;14.40;84.50
32296;DHT22;18781;51.550;5.418;2024-02-04T13:13:06;14.40;84.50
32296;DHT22;18781;51.550;5.418;2024-02-04T13:15:40;14.40;84.50
32296;DHT22;18781;51.550;5.418;2024-02-04T13:18:07;14.40;84.40
32296;DHT22;18781;51.550;5.418;2024-02-04T13:20:33;14.40;84.10
32296;DHT22;18781;51.550;5.418;2024-02-04T13:22:58;14.50;84.10
32296;DHT22;18781;51.550;5.418;2024-02-04T13:25:26;14.40;84.00
32296;DHT22;18781;51.550;5.418;2024-02-04T13:27:52;14.50;84.00
32296;DHT22;18781;51.550;5.418;2024-02-04T13:30:18;14.50;83.80
32296;DHT22;18781;51.550;5.418;2024-02-04T13:32:45;14.50;83.80
32296;DHT22;18781;51.550;5.418;2024-02-04T13:35:11;14.50;83.50
32296;DHT22;18781;51.550;5.418;2024-02-04T13:37:41;14.50;83.60
32296;DHT22;18781;51.550;5.418;2024-02-04T13:40:07;14.60;83.60
32296;DHT22;18781;51.550;5.418;2024-02-04T13:42:34;14.60;83.20
32296;DHT22;18781;51.550;5.418;2024-02-04T13:45:00;14.70;83.10
32296;DHT22;18781;51.550;5.418;2024-02-04T13:47:27;14.70;83.00
32296;DHT22;18781;51.550;5.418;2024-02-04T13:49:53;14.70;82.90
32296;DHT22;18781;51.550;5.418;2024-02-04T13:52:18;14.70;82.90
32296;DHT22;18781;51.550;5.418;2024-02-04T13:54:44;14.70;82.80
32296;DHT22;18781;51.550;5.418;2024-02-04T13:57:10;14.70;82.50
32296;DHT22;18781;51.550;5.418;2024-02-04T13:59:36;14.80;82.50
32296;DHT22;18781;51.550;5.418;2024-02-04T14:02:02;14.80;82.30
32296;DHT22;18781;51.550;5.418;2024-02-04T14:04:29;14.80;82.20
32296;DHT22;18781;51.550;5.418;2024-02-04T14:06:55;14.80;82.30
32296;DHT22;18781;51.550;5.418;2024-02-04T14:09:20;14.80;82.00
32296;DHT22;18781;51.550;5.418;2024-02-04T14:11:46;14.80;81.90
32296;DHT22;18781;51.550;5.418;2024-02-04T14:14:11;14.90;81.90
32296;DHT22;18781;51.550;5.418;2024-02-04T14:16:38;14.90;81.80
32296;DHT22;18781;51.550;5.418;2024-02-04T14:19:04;14.90;81.60
32296;DHT22;18781;51.550;5.418;2024-02-04T14:21:30;14.90;81.60
32296;DHT22;18781;51.550;5.418;2024-02-04T14:23:56;14.90;81.60
32296;DHT22;18781;51.550;5.418;2024-02-04T14:26:21;14.90;81.60
32296;DHT22;18781;51.550;5.418;2024-02-04T14:28:48;14.90;81.30
32296;DHT22;18781;51.550;5.418;2024-02-04T14:31:13;14.90;81.20
32296;DHT22;18781;51.550;5.418;2024-02-04T14:33:40;14.90;81.40
32296;DHT22;18781;51.550;5.418;2024-02-04T14:36:09;14.90;81.20
32296;DHT22;18781;51.550;5.418;2024-02-04T14:38:35;15.00;81.20
32296;DHT22;18781;51.550;5.418;2024-02-04T14:41:04;15.00;81.30
32296;DHT22;18781;51.550;5.418;2024-02-04T14:43:29;14.90;81.30
32296;DHT22;18781;51.550;5.418;2024-02-04T14:45:55;15.00;81.30
32296;DHT22;18781;51.550;5.418;2024-02-04T14:48:21;15.00;81.00
32296;DHT22;18781;51.550;5.418;2024-02-04T14:50:47;15.00;81.10
32296;DHT22;18781;51.550;5.418;2024-02-04T14:53:13;15.00;81.10
32296;DHT22;18781;51.550;5.418;2024-02-04T14:55:39;15.00;80.90
32296;DHT22;18781;51.550;5.418;2024-02-04T14:58:05;15.00;81.00
32296;DHT22;18781;51.550;5.418;2024-02-04T15:00:31;15.00;80.90
32296;DHT22;18781;51.550;5.418;2024-02-04T15:02:58;15.00;80.90
32296;DHT22;18781;51.550;5.418;2024-02-04T15:05:25;15.00;80.80
32296;DHT22;18781;51.550;5.418;2024-02-04T15:07:51;15.00;80.70
32296;DHT22;18781;51.550;5.418;2024-02-04T15:10:17;15.00;80.90
32296;DHT22;18781;51.550;5.418;2024-02-04T15:12:43;15.00;80.60
32296;DHT22;18781;51.550;5.418;2024-02-04T15:15:10;15.00;80.60
32296;DHT22;18781;51.550;5.418;2024-02-04T15:17:36;15.00;80.70
32296;DHT22;18781;51.550;5.418;2024-02-04T15:20:02;15.00;80.70
32296;DHT22;18781;51.550;5.418;2024-02-04T15:22:29;15.00;80.60
32296;DHT22;18781;51.550;5.418;2024-02-04T15:24:56;15.00;80.40
32296;DHT22;18781;51.550;5.418;2024-02-04T15:27:23;15.00;80.40
32296;DHT22;18781;51.550;5.418;2024-02-04T15:29:49;15.00;80.40
32296;DHT22;18781;51.550;5.418;2024-02-04T15:32:16;15.00;80.30
32296;DHT22;18781;51.550;5.418;2024-02-04T15:34:42;15.00;80.40
32296;DHT22;18781;51.550;5.418;2024-02-04T15:37:08;15.00;80.20